createdAt,value
2022-09-25T00:02:35.895Z,21.88
2022-09-25T00:07:42.356Z,20.55
2022-09-25T00:12:47.266Z,21.25
2022-09-25T00:17:52.212Z,21.13
2022-09-25T00:23:00.081Z,21.85
2022-09-25T00:28:04.451Z,24.58
2022-09-25T00:33:08.949Z,23.42
2022-09-25T00:38:15.181Z,21.00
2022-09-25T00:43:37.511Z,23.02
2022-09-25T00:48:50.956Z,22.90
2022-09-25T00:54:00.219Z,22.83
2022-09-25T00:59:04.731Z,24.10
2022-09-25T01:04:13.755Z,24.52
2022-09-25T01:09:20.330Z,24.83
2022-09-25T01:14:24.623Z,23.63
2022-09-25T01:19:46.246Z,22.63
2022-09-25T01:25:12.649Z,23.35
2022-09-25T01:30:20.976Z,24.92
2022-09-25T01:35:38.457Z,21.40
2022-09-25T01:40:50.064Z,21.73
2022-09-25T01:45:59.538Z,20.65
2022-09-25T01:51:07.395Z,20.13
2022-09-25T01:56:23.618Z,19.75
2022-09-25T02:01:36.521Z,20.08
2022-09-25T02:06:45.862Z,19.20
2022-09-25T02:11:58.215Z,22.48
2022-09-25T02:17:10.885Z,20.75
2022-09-25T02:22:21.460Z,20.05
2022-09-25T02:27:29.821Z,22.20
2022-09-25T02:32:35.980Z,23.00
2022-09-25T02:37:40.564Z,22.23
2022-09-25T02:42:51.176Z,23.50
2022-09-25T02:48:09.727Z,21.90
2022-09-25T02:53:22.604Z,20.52
2022-09-25T02:58:31.887Z,20.58
2022-09-25T03:03:40.846Z,21.13
2022-09-25T03:08:52.629Z,21.57
2022-09-25T03:13:58.907Z,23.60
2022-09-25T03:19:05.646Z,23.00
2022-09-25T03:24:11.665Z,20.77
2022-09-25T03:29:17.646Z,20.92
2022-09-25T03:34:26.748Z,21.63
2022-09-25T03:39:31.283Z,20.43
2022-09-25T03:44:36.122Z,20.83
2022-09-25T03:49:41.864Z,19.52
2022-09-25T03:54:46.134Z,17.65
2022-09-25T03:59:51.158Z,17.25
2022-09-25T04:04:57.084Z,18.42
2022-09-25T04:10:01.800Z,17.23
2022-09-25T04:15:09.761Z,16.10
2022-09-25T04:20:15.971Z,16.83
2022-09-25T04:25:24.512Z,16.13
2022-09-25T04:30:31.272Z,15.65
2022-09-25T04:35:37.341Z,15.02
2022-09-25T04:40:42.238Z,15.55
2022-09-25T04:45:48.141Z,14.07
2022-09-25T04:50:54.738Z,14.43
2022-09-25T04:56:03.521Z,13.95
2022-09-25T05:01:10.133Z,15.67
2022-09-25T05:06:17.197Z,13.95
2022-09-25T05:11:21.988Z,14.68
2022-09-25T05:16:28.217Z,15.55
2022-09-25T05:21:34.220Z,13.73
2022-09-25T05:26:39.619Z,14.35
2022-09-25T05:31:47.065Z,15.98
2022-09-25T05:36:54.587Z,14.90
2022-09-25T05:41:59.621Z,15.98
2022-09-25T05:47:04.337Z,15.55
2022-09-25T05:52:11.226Z,16.52
2022-09-25T05:57:16.271Z,16.92
2022-09-25T06:02:20.673Z,27.00
2022-09-25T06:07:26.475Z,19.10
2022-09-25T06:12:31.411Z,16.65
2022-09-25T06:17:36.082Z,16.63
2022-09-25T06:22:42.887Z,18.15
2022-09-25T06:27:47.990Z,18.02
2022-09-25T06:33:00.158Z,22.05
2022-09-25T06:38:06.869Z,20.65
2022-09-25T06:43:14.322Z,20.95
2022-09-25T06:48:22.200Z,20.95
2022-09-25T06:53:29.176Z,22.63
2022-09-25T06:58:33.326Z,22.45
2022-09-25T07:03:47.105Z,23.30
2022-09-25T07:08:56.517Z,25.63
2022-09-25T07:14:01.506Z,27.58
2022-09-25T07:19:06.375Z,27.85
2022-09-25T07:24:12.738Z,28.75
2022-09-25T07:29:36.117Z,26.37
2022-09-25T07:34:40.216Z,28.88
2022-09-25T07:39:45.491Z,25.23
2022-09-25T07:44:54.835Z,27.55
2022-09-25T07:50:00.339Z,28.48
2022-09-25T07:55:18.507Z,29.13
2022-09-25T08:00:59.155Z,27.75
2022-09-25T08:06:29.572Z,27.95
2022-09-25T08:11:40.640Z,23.92
2022-09-25T08:22:00.415Z,23.90
2022-09-25T08:27:21.867Z,23.77
2022-09-25T08:32:25.460Z,23.90
2022-09-25T08:37:29.297Z,29.23
2022-09-25T08:42:38.122Z,24.33
2022-09-25T08:47:59.760Z,24.27
2022-09-25T08:53:08.852Z,20.58
2022-09-25T08:58:16.800Z,19.87
2022-09-25T09:03:21.588Z,29.90
2022-09-25T09:08:29.748Z,17.75
2022-09-25T09:13:42.492Z,23.38
2022-09-25T09:18:46.257Z,24.08
2022-09-25T09:23:58.294Z,24.65
2022-09-25T09:29:25.947Z,20.98
2022-09-25T09:35:04.686Z,19.92
2022-09-25T09:40:23.376Z,20.30
2022-09-25T09:45:35.831Z,21.42
2022-09-25T09:50:51.391Z,22.02
2022-09-25T09:56:01.676Z,23.67
2022-09-25T10:01:29.162Z,19.70
2022-09-25T10:06:34.869Z,21.27
2022-09-25T10:11:41.048Z,20.42
2022-09-25T10:16:46.004Z,21.42
2022-09-25T10:21:53.539Z,17.92
2022-09-25T10:26:56.896Z,17.23
2022-09-25T10:32:05.779Z,18.30
2022-09-25T10:37:20.306Z,16.30
2022-09-25T10:42:40.876Z,17.23
2022-09-25T10:48:08.442Z,17.48
2022-09-25T10:53:30.451Z,16.95
2022-09-25T10:58:39.373Z,16.30
2022-09-25T11:03:51.420Z,16.10
2022-09-25T11:09:27.578Z,17.67
2022-09-25T11:14:33.156Z,20.40
2022-09-25T11:19:41.689Z,15.27
2022-09-25T11:25:07.583Z,13.88
2022-09-25T11:30:16.687Z,13.93
2022-09-25T11:41:02.368Z,12.57
2022-09-25T11:46:14.543Z,13.93
2022-09-25T11:51:36.138Z,12.05
2022-09-25T11:56:48.270Z,11.77
2022-09-25T12:01:59.016Z,12.77
2022-09-25T12:07:31.188Z,11.90
2022-09-25T12:12:46.000Z,11.05
2022-09-25T12:18:00.714Z,11.35
2022-09-25T12:23:16.134Z,11.23
2022-09-25T12:28:28.860Z,9.80
2022-09-25T12:33:39.633Z,10.52
2022-09-25T12:38:49.094Z,14.18
2022-09-25T12:49:09.551Z,13.27
2022-09-25T12:54:28.241Z,19.55
2022-09-25T12:59:41.510Z,17.35
2022-09-25T13:05:00.734Z,18.33
2022-09-25T13:10:28.196Z,15.93
2022-09-25T13:15:36.601Z,12.40
2022-09-25T13:20:50.552Z,13.50
2022-09-25T13:26:01.666Z,13.77
2022-09-25T13:31:09.993Z,14.65
2022-09-25T13:36:33.955Z,15.82
2022-09-25T13:41:50.479Z,15.27
2022-09-25T13:47:31.682Z,15.80
2022-09-25T13:53:20.642Z,14.68
2022-09-25T13:58:28.495Z,13.77
2022-09-25T14:03:44.314Z,17.35
2022-09-25T14:08:53.180Z,13.20
2022-09-25T14:14:08.568Z,10.95
2022-09-25T14:19:23.475Z,11.13
2022-09-25T14:24:45.425Z,11.55
2022-09-25T14:29:50.596Z,11.98
2022-09-25T14:35:22.090Z,12.07
2022-09-25T14:40:33.741Z,10.95
2022-09-25T14:45:57.248Z,11.40
2022-09-25T14:51:04.747Z,11.73
2022-09-25T14:56:14.880Z,10.70
2022-09-25T15:11:41.779Z,13.18
2022-09-25T15:17:05.819Z,11.52
2022-09-25T15:22:11.462Z,14.45
2022-09-25T15:27:17.155Z,12.60
2022-09-25T15:32:26.937Z,10.98
2022-09-25T15:37:31.101Z,13.60
2022-09-25T15:42:34.588Z,15.32
2022-09-25T15:47:54.795Z,13.45
2022-09-25T15:53:01.487Z,15.98
2022-09-25T15:58:08.337Z,24.63
2022-09-25T16:03:35.349Z,21.00
2022-09-25T16:08:38.618Z,21.88
2022-09-25T16:13:44.278Z,29.63
2022-09-25T16:18:49.559Z,18.52
2022-09-25T16:23:56.562Z,69.32
2022-09-25T16:29:10.122Z,136.05
2022-09-25T16:34:26.312Z,98.45
2022-09-25T16:39:32.158Z,42.53
2022-09-25T16:44:45.253Z,44.47
2022-09-25T16:49:50.239Z,26.33
2022-09-25T16:54:56.982Z,42.45
2022-09-25T17:00:01.664Z,28.52
2022-09-25T17:05:12.134Z,28.98
2022-09-25T17:10:17.099Z,26.67
2022-09-25T17:15:24.630Z,30.23
2022-09-25T17:20:31.394Z,30.25
2022-09-25T17:25:41.402Z,31.33
2022-09-25T17:30:45.968Z,29.00
2022-09-25T17:35:54.125Z,28.63
2022-09-25T17:41:03.182Z,29.83
2022-09-25T17:46:10.410Z,29.33
2022-09-25T17:51:18.295Z,30.80
2022-09-25T17:56:22.166Z,33.00
2022-09-25T18:01:28.038Z,30.02
2022-09-25T18:06:32.974Z,26.80
2022-09-25T18:11:36.533Z,28.40
2022-09-25T18:16:55.771Z,29.15
2022-09-25T18:22:18.359Z,26.92
2022-09-25T18:27:22.022Z,28.88
2022-09-25T18:32:38.050Z,31.20
2022-09-25T18:37:44.264Z,32.13
2022-09-25T18:42:48.511Z,31.35
2022-09-25T18:47:54.558Z,34.17
2022-09-25T18:53:29.643Z,30.20
2022-09-25T18:58:33.969Z,30.85
2022-09-25T19:03:40.896Z,31.98
2022-09-25T19:08:58.038Z,34.75
2022-09-25T19:14:04.832Z,32.97
2022-09-25T19:19:08.749Z,39.42
2022-09-25T19:24:18.825Z,33.92
2022-09-25T19:29:22.782Z,35.47
2022-09-25T19:34:26.567Z,35.20
2022-09-25T19:39:51.259Z,42.80
2022-09-25T19:44:56.545Z,41.88
2022-09-25T19:50:05.845Z,41.35
2022-09-25T19:55:11.023Z,41.33
2022-09-25T20:00:18.229Z,56.05
2022-09-25T20:05:21.852Z,42.08
2022-09-25T20:10:27.258Z,46.67
2022-09-25T20:15:31.630Z,42.05
2022-09-25T20:20:35.918Z,38.65
2022-09-25T20:25:41.479Z,38.13
2022-09-25T20:30:45.062Z,41.78
2022-09-25T20:35:48.609Z,40.17
2022-09-25T20:40:53.716Z,41.70
2022-09-25T20:45:58.492Z,42.50
2022-09-25T20:51:01.957Z,43.33
2022-09-25T20:56:34.529Z,44.72
2022-09-25T21:01:43.488Z,42.00
2022-09-25T21:06:51.256Z,50.53
2022-09-25T21:11:56.458Z,50.42
2022-09-25T21:17:00.068Z,48.58
2022-09-25T21:22:03.708Z,46.75
2022-09-25T21:27:08.568Z,47.97
2022-09-25T21:32:12.063Z,51.17
2022-09-25T21:37:15.437Z,49.92
2022-09-25T21:42:20.899Z,48.13
2022-09-25T21:47:24.512Z,51.15
2022-09-25T21:52:27.864Z,51.00
2022-09-25T21:57:32.874Z,49.47
2022-09-25T22:02:36.279Z,53.47
2022-09-25T22:07:40.524Z,53.63
2022-09-25T22:12:45.192Z,44.00
2022-09-25T22:17:48.583Z,47.25
2022-09-25T22:22:51.866Z,45.38
2022-09-25T22:27:56.558Z,46.50
2022-09-25T22:32:59.837Z,45.85
2022-09-25T22:38:03.418Z,47.00
2022-09-25T22:43:08.173Z,48.75
2022-09-25T22:48:11.557Z,48.50
2022-09-25T22:53:14.842Z,50.80
2022-09-25T22:58:20.434Z,52.40
2022-09-25T23:03:24.862Z,52.90
2022-09-25T23:08:28.691Z,55.95
2022-09-25T23:13:34.379Z,57.03
2022-09-25T23:18:39.073Z,53.95
2022-09-25T23:23:42.385Z,55.10
2022-09-25T23:28:46.996Z,55.08
2022-09-25T23:33:50.375Z,53.20
2022-09-25T23:38:55.709Z,52.95
2022-09-25T23:44:01.675Z,50.75
2022-09-25T23:49:05.844Z,48.40
2022-09-25T23:54:11.121Z,47.83
2022-09-25T23:59:16.163Z,47.03
